Ardenhurst, Minnesota
Current Conditions -  °F | °C
As of 12:53 PM on Wednesday 26 Nov 2014 (Local Time) from KFOZ Reporting Station
Clear Clear  
Wind Chill: -18°   Ceiling: Unl
Heat Index: -11°   Visibility: 10mi
Dew Point: -19°   Wind: 9mph
Humidity: 53%   Direction: 350°N
Pressure: 30.25"   Gusts: NA
Location:  47.8312°N, 94.1459°W
Report Text: KFOZ 261853Z AUTO 35008KT 10SM CLR M11/M19 A3025 RMK AO2
Loading
Personal Weather Stations






























Interactive Weather Map New forecast layout! Learn more

10-Day Weather Forecast

Advertisements
Track Severe Weather on mobile